Aplicació Alertes

Dades de l'estació automàtica Gandesa

?
?
Resum diari 22:30 TU
Dades diàries de l'estació meteorològica
Temperatura mitjana 5.4 °C
Temperatura màxima 9.8 °C 14:30 TU
Temperatura mínima 1.9 °C 6:48 TU
Humitat relativa mitjana 67%
Precipitació acumulada 0.0 mm
Ratxa màxima del vent (2 m) 29.9 km/h - 292º 1:20 TU
Irradiació solar global 8.8 MJ/m2

El tram horari està expressat en Temps Universal (TU). Cal sumar una hora en horari d'hivern i dues en horari d'estiu per passar a l'hora oficial.

Gandesa

Metadades estació meteorol´gica
Municipi Gandesa
Comarca Terra Alta
Altitud 349 m
Data alta 30.11.2011
Estat actual Operativa
Dades de període
Període
TU
TM
°C
TX
°C
TN
°C
HRM
%
PPT
mm
VVM (2 m)
km/h
DVM (2 m)
graus
VVX (2 m)
km/h
RS
W/m2
00:00 - 00:30 3.7 3.8 3.6 74 0.0 10.8 282 23.8 0
00:30 - 01:00 3.7 3.8 3.5 74 0.0 12.2 282 25.2 0
01:00 - 01:30 3.8 3.9 3.7 74 0.0 14.8 285 29.9 0
01:30 - 02:00 3.6 3.8 3.4 75 0.0 10.4 280 22.7 0
02:00 - 02:30 3.5 3.5 3.4 75 0.0 9.7 268 19.4 0
02:30 - 03:00 3.3 3.4 3.1 75 0.0 6.5 247 15.5 0
03:00 - 03:30 2.9 3.1 2.7 76 0.0 6.1 246 13.7 0
03:30 - 04:00 2.7 2.8 2.6 75 0.0 7.2 248 18.0 0
04:00 - 04:30 2.8 2.9 2.7 75 0.0 9.0 242 18.7 0
04:30 - 05:00 2.6 2.7 2.3 77 0.0 8.3 243 19.8 0
05:00 - 05:30 2.4 2.5 2.2 78 0.0 8.6 252 16.9 0
05:30 - 06:00 2.2 2.3 2.0 80 0.0 9.0 252 18.4 0
06:00 - 06:30 2.2 2.3 2.1 81 0.0 6.8 243 14.0 0
06:30 - 07:00 2.0 2.1 1.9 82 0.0 6.5 256 13.3 0
07:00 - 07:30 2.5 2.9 2.0 80 0.0 7.6 263 17.3 2
07:30 - 08:00 2.9 3.0 2.7 78 0.0 6.8 242 17.6 41
08:00 - 08:30 3.4 3.7 2.9 77 0.0 7.2 255 14.8 109
08:30 - 09:00 4.1 4.6 3.7 75 0.0 9.7 265 22.3 181
09:00 - 09:30 4.9 5.1 4.6 72 0.0 11.2 273 23.4 251
09:30 - 10:00 5.4 5.9 5.1 69 0.0 13.3 273 27.0 312
10:00 - 10:30 6.0 6.5 5.7 66 0.0 13.3 273 24.8 364
10:30 - 11:00 6.7 7.0 6.4 62 0.0 13.0 273 23.8 404
11:00 - 11:30 7.2 7.6 7.0 59 0.0 11.9 269 24.8 430
11:30 - 12:00 7.8 8.1 7.4 55 0.0 12.2 275 28.8 445
12:00 - 12:30 8.4 9.0 8.0 52 0.0 11.5 268 25.6 443
12:30 - 13:00 8.9 9.3 8.8 49 0.0 12.2 265 22.3 427
13:00 - 13:30 9.3 9.7 9.0 48 0.0 11.2 273 26.6 396
13:30 - 14:00 9.4 9.7 9.2 46 0.0 10.8 268 22.7 353
14:00 - 14:30 9.4 9.6 9.2 45 0.0 10.8 268 22.3 298
14:30 - 15:00 9.4 9.8 9.2 46 0.0 11.2 289 22.3 237
15:00 - 15:30 9.2 9.4 9.0 47 0.0 11.5 282 21.6 160
15:30 - 16:00 8.9 9.1 8.7 47 0.0 10.1 284 19.4 82
16:00 - 16:30 8.2 8.7 7.8 49 0.0 9.4 287 21.2 16
16:30 - 17:00 7.6 7.8 7.3 52 0.0 9.4 286 20.2 0
17:00 - 17:30 7.4 7.6 7.3 58 0.0 11.2 287 25.6 0
17:30 - 18:00 7.3 7.6 7.0 61 0.0 11.9 276 23.0 0
18:00 - 18:30 6.1 7.0 5.2 65 0.0 7.6 242 14.8 0
18:30 - 19:00 5.3 5.4 5.1 69 0.0 8.3 244 14.4 0
19:00 - 19:30 5.0 5.3 4.7 70 0.0 8.3 237 17.3 0
19:30 - 20:00 4.7 4.9 4.5 71 0.0 7.2 239 14.8 0
20:00 - 20:30 4.7 4.9 4.5 72 0.0 6.5 246 13.3 0
20:30 - 21:00 5.2 5.8 4.5 73 0.0 8.6 257 21.6 0
21:00 - 21:30 5.5 5.9 5.0 73 0.0 8.3 246 21.6 0
21:30 - 22:00 4.9 5.1 4.7 76 0.0 7.6 235 15.8 0
22:00 - 22:30 4.9 5.6 4.7 77 0.0 6.8 237 14.8 0
22:30 - 23:00 5.4 5.6 5.3 75 0.0 7.6 242 16.6 0

Les dades en taronja només han passat un control de qualitat automàtic. Resta pendent la seva validació definitiva.